sensor_id;sensor_type;location;lat;lon;timestamp;P1;durP1;ratioP1;P2;durP2;ratioP2
51332;SDS011;37417;48.118;11.734;2024-01-30T00:02:23;8.25;;;2.95;;
51332;SDS011;37417;48.118;11.734;2024-01-30T00:05:09;3.88;;;3.47;;
51332;SDS011;37417;48.118;11.734;2024-01-30T00:07:54;5.43;;;2.88;;
51332;SDS011;37417;48.118;11.734;2024-01-30T00:10:40;4.65;;;3.38;;
51332;SDS011;37417;48.118;11.734;2024-01-30T00:13:25;4.50;;;2.88;;
51332;SDS011;37417;48.118;11.734;2024-01-30T00:16:20;6.75;;;3.17;;
51332;SDS011;37417;48.118;11.734;2024-01-30T00:19:07;8.63;;;3.25;;
51332;SDS011;37417;48.118;11.734;2024-01-30T00:21:53;4.25;;;2.35;;
51332;SDS011;37417;48.118;11.734;2024-01-30T00:24:39;6.18;;;3.42;;
51332;SDS011;37417;48.118;11.734;2024-01-30T00:27:25;7.97;;;3.70;;
51332;SDS011;37417;48.118;11.734;2024-01-30T00:30:10;3.42;;;2.38;;
51332;SDS011;37417;48.118;11.734;2024-01-30T00:39:05;3.13;;;1.73;;
51332;SDS011;37417;48.118;11.734;2024-01-30T00:41:52;11.27;;;3.70;;
51332;SDS011;37417;48.118;11.734;2024-01-30T00:44:38;5.50;;;1.92;;
51332;SDS011;37417;48.118;11.734;2024-01-30T00:50:09;4.03;;;2.63;;
51332;SDS011;37417;48.118;11.734;2024-01-30T00:52:55;4.43;;;3.08;;
51332;SDS011;37417;48.118;11.734;2024-01-30T00:55:40;5.20;;;3.15;;
51332;SDS011;37417;48.118;11.734;2024-01-30T00:58:26;6.30;;;3.17;;
51332;SDS011;37417;48.118;11.734;2024-01-30T01:01:11;5.22;;;3.08;;
51332;SDS011;37417;48.118;11.734;2024-01-30T01:03:57;3.88;;;2.85;;
51332;SDS011;37417;48.118;11.734;2024-01-30T01:06:43;3.88;;;2.90;;
51332;SDS011;37417;48.118;11.734;2024-01-30T01:09:29;1.75;;;1.58;;
51332;SDS011;37417;48.118;11.734;2024-01-30T01:12:14;1.30;;;1.20;;
51332;SDS011;37417;48.118;11.734;2024-01-30T01:15:01;7.55;;;3.58;;
51332;SDS011;37417;48.118;11.734;2024-01-30T01:17:47;3.85;;;2.50;;
51332;SDS011;37417;48.118;11.734;2024-01-30T01:20:33;5.10;;;3.35;;
51332;SDS011;37417;48.118;11.734;2024-01-30T01:23:18;4.82;;;2.70;;
51332;SDS011;37417;48.118;11.734;2024-01-30T01:26:04;6.18;;;2.75;;
51332;SDS011;37417;48.118;11.734;2024-01-30T01:28:49;7.55;;;2.60;;
51332;SDS011;37417;48.118;11.734;2024-01-30T01:31:38;4.50;;;2.75;;
51332;SDS011;37417;48.118;11.734;2024-01-30T01:34:28;4.30;;;2.30;;
51332;SDS011;37417;48.118;11.734;2024-01-30T01:37:14;4.78;;;2.97;;
51332;SDS011;37417;48.118;11.734;2024-01-30T01:40:00;4.57;;;2.50;;
51332;SDS011;37417;48.118;11.734;2024-01-30T01:42:45;5.22;;;2.53;;
51332;SDS011;37417;48.118;11.734;2024-01-30T01:45:31;5.28;;;2.70;;
51332;SDS011;37417;48.118;11.734;2024-01-30T01:48:16;4.15;;;2.55;;
51332;SDS011;37417;48.118;11.734;2024-01-30T01:51:02;4.65;;;2.47;;
51332;SDS011;37417;48.118;11.734;2024-01-30T01:53:48;4.03;;;2.85;;
51332;SDS011;37417;48.118;11.734;2024-01-30T01:56:33;4.10;;;2.78;;
51332;SDS011;37417;48.118;11.734;2024-01-30T01:59:19;3.28;;;2.30;;
51332;SDS011;37417;48.118;11.734;2024-01-30T02:02:05;4.07;;;2.88;;
51332;SDS011;37417;48.118;11.734;2024-01-30T02:04:52;6.40;;;2.50;;
51332;SDS011;37417;48.118;11.734;2024-01-30T02:07:38;9.75;;;2.75;;
51332;SDS011;37417;48.118;11.734;2024-01-30T02:10:24;4.43;;;3.15;;
51332;SDS011;37417;48.118;11.734;2024-01-30T02:13:09;3.05;;;2.25;;
51332;SDS011;37417;48.118;11.734;2024-01-30T02:15:55;3.38;;;2.50;;
51332;SDS011;37417;48.118;11.734;2024-01-30T02:18:40;5.03;;;2.38;;
51332;SDS011;37417;48.118;11.734;2024-01-30T02:24:18;3.17;;;2.22;;
51332;SDS011;37417;48.118;11.734;2024-01-30T02:27:04;4.25;;;2.25;;
51332;SDS011;37417;48.118;11.734;2024-01-30T02:29:49;4.47;;;2.50;;
51332;SDS011;37417;48.118;11.734;2024-01-30T02:32:35;4.68;;;2.40;;
51332;SDS011;37417;48.118;11.734;2024-01-30T02:35:20;3.40;;;2.15;;
51332;SDS011;37417;48.118;11.734;2024-01-30T02:38:06;4.90;;;2.20;;
51332;SDS011;37417;48.118;11.734;2024-01-30T02:40:52;4.43;;;2.70;;
51332;SDS011;37417;48.118;11.734;2024-01-30T02:43:37;3.03;;;2.28;;
51332;SDS011;37417;48.118;11.734;2024-01-30T02:46:23;5.50;;;2.90;;
51332;SDS011;37417;48.118;11.734;2024-01-30T02:49:08;3.22;;;2.10;;
51332;SDS011;37417;48.118;11.734;2024-01-30T02:51:54;5.35;;;2.45;;
51332;SDS011;37417;48.118;11.734;2024-01-30T02:54:40;3.10;;;2.15;;
51332;SDS011;37417;48.118;11.734;2024-01-30T02:57:25;2.55;;;2.17;;
51332;SDS011;37417;48.118;11.734;2024-01-30T03:00:11;3.10;;;1.98;;
51332;SDS011;37417;48.118;11.734;2024-01-30T03:02:57;3.67;;;2.05;;
51332;SDS011;37417;48.118;11.734;2024-01-30T03:05:42;1.55;;;1.45;;
51332;SDS011;37417;48.118;11.734;2024-01-30T03:08:28;2.80;;;1.88;;
51332;SDS011;37417;48.118;11.734;2024-01-30T03:11:13;5.47;;;2.38;;
51332;SDS011;37417;48.118;11.734;2024-01-30T03:13:59;3.72;;;2.00;;
51332;SDS011;37417;48.118;11.734;2024-01-30T03:16:45;3.50;;;2.08;;
51332;SDS011;37417;48.118;11.734;2024-01-30T03:19:30;5.72;;;2.53;;
51332;SDS011;37417;48.118;11.734;2024-01-30T03:22:16;4.40;;;2.55;;
51332;SDS011;37417;48.118;11.734;2024-01-30T03:25:01;2.83;;;1.67;;
51332;SDS011;37417;48.118;11.734;2024-01-30T03:27:47;4.45;;;2.35;;
51332;SDS011;37417;48.118;11.734;2024-01-30T03:30:34;4.30;;;1.75;;
51332;SDS011;37417;48.118;11.734;2024-01-30T03:33:19;2.05;;;1.45;;
51332;SDS011;37417;48.118;11.734;2024-01-30T03:36:05;2.38;;;1.45;;
51332;SDS011;37417;48.118;11.734;2024-01-30T03:38:51;1.55;;;1.27;;
51332;SDS011;37417;48.118;11.734;2024-01-30T03:41:36;3.97;;;1.92;;
51332;SDS011;37417;48.118;11.734;2024-01-30T03:44:22;4.10;;;1.20;;
51332;SDS011;37417;48.118;11.734;2024-01-30T03:47:07;2.22;;;1.50;;
51332;SDS011;37417;48.118;11.734;2024-01-30T03:49:53;1.35;;;1.25;;
51332;SDS011;37417;48.118;11.734;2024-01-30T03:52:38;1.30;;;1.20;;
51332;SDS011;37417;48.118;11.734;2024-01-30T03:55:24;2.17;;;1.33;;
51332;SDS011;37417;48.118;11.734;2024-01-30T03:58:09;0.82;;;0.82;;
51332;SDS011;37417;48.118;11.734;2024-01-30T04:00:55;1.70;;;1.27;;
51332;SDS011;37417;48.118;11.734;2024-01-30T04:03:41;1.20;;;1.10;;
51332;SDS011;37417;48.118;11.734;2024-01-30T04:06:26;1.85;;;1.50;;
51332;SDS011;37417;48.118;11.734;2024-01-30T04:09:12;2.05;;;1.50;;
51332;SDS011;37417;48.118;11.734;2024-01-30T04:11:58;4.93;;;1.10;;
51332;SDS011;37417;48.118;11.734;2024-01-30T04:14:44;1.55;;;1.40;;
51332;SDS011;37417;48.118;11.734;2024-01-30T04:17:29;2.10;;;1.30;;
51332;SDS011;37417;48.118;11.734;2024-01-30T04:20:15;1.30;;;0.82;;
51332;SDS011;37417;48.118;11.734;2024-01-30T04:23:03;2.35;;;1.30;;
51332;SDS011;37417;48.118;11.734;2024-01-30T04:25:49;1.80;;;1.00;;
51332;SDS011;37417;48.118;11.734;2024-01-30T04:28:34;1.85;;;0.93;;
51332;SDS011;37417;48.118;11.734;2024-01-30T04:31:20;1.25;;;1.10;;
51332;SDS011;37417;48.118;11.734;2024-01-30T04:34:05;3.97;;;1.33;;
51332;SDS011;37417;48.118;11.734;2024-01-30T04:36:51;1.80;;;1.17;;
51332;SDS011;37417;48.118;11.734;2024-01-30T04:39:36;1.40;;;0.80;;
51332;SDS011;37417;48.118;11.734;2024-01-30T04:42:22;1.75;;;0.95;;
51332;SDS011;37417;48.118;11.734;2024-01-30T04:45:08;1.15;;;1.05;;
51332;SDS011;37417;48.118;11.734;2024-01-30T04:47:53;1.60;;;0.93;;
51332;SDS011;37417;48.118;11.734;2024-01-30T04:50:39;1.77;;;1.05;;
51332;SDS011;37417;48.118;11.734;2024-01-30T04:53:25;1.67;;;1.25;;
51332;SDS011;37417;48.118;11.734;2024-01-30T04:56:10;1.05;;;0.73;;
51332;SDS011;37417;48.118;11.734;2024-01-30T04:58:56;1.10;;;0.95;;
51332;SDS011;37417;48.118;11.734;2024-01-30T05:01:41;1.55;;;0.98;;
51332;SDS011;37417;48.118;11.734;2024-01-30T05:04:27;1.48;;;0.85;;
51332;SDS011;37417;48.118;11.734;2024-01-30T05:07:12;1.50;;;0.70;;
51332;SDS011;37417;48.118;11.734;2024-01-30T05:09:58;1.17;;;0.70;;
51332;SDS011;37417;48.118;11.734;2024-01-30T05:12:43;4.20;;;1.27;;
51332;SDS011;37417;48.118;11.734;2024-01-30T05:15:29;2.28;;;1.20;;
51332;SDS011;37417;48.118;11.734;2024-01-30T05:18:15;2.85;;;0.88;;
51332;SDS011;37417;48.118;11.734;2024-01-30T05:21:01;1.90;;;0.95;;
51332;SDS011;37417;48.118;11.734;2024-01-30T05:23:47;3.05;;;1.00;;
51332;SDS011;37417;48.118;11.734;2024-01-30T05:26:32;1.90;;;1.00;;
51332;SDS011;37417;48.118;11.734;2024-01-30T05:29:18;1.80;;;0.73;;
51332;SDS011;37417;48.118;11.734;2024-01-30T05:32:04;2.42;;;0.80;;
51332;SDS011;37417;48.118;11.734;2024-01-30T05:34:50;1.20;;;0.70;;
51332;SDS011;37417;48.118;11.734;2024-01-30T05:37:36;1.45;;;0.75;;
51332;SDS011;37417;48.118;11.734;2024-01-30T05:40:21;4.50;;;1.15;;
51332;SDS011;37417;48.118;11.734;2024-01-30T05:43:07;1.20;;;0.90;;
51332;SDS011;37417;48.118;11.734;2024-01-30T05:45:53;3.05;;;0.98;;
51332;SDS011;37417;48.118;11.734;2024-01-30T05:48:38;2.10;;;1.27;;
51332;SDS011;37417;48.118;11.734;2024-01-30T05:51:24;1.70;;;1.13;;
51332;SDS011;37417;48.118;11.734;2024-01-30T05:54:09;1.60;;;1.20;;
51332;SDS011;37417;48.118;11.734;2024-01-30T05:56:55;2.08;;;1.50;;
51332;SDS011;37417;48.118;11.734;2024-01-30T05:59:41;3.65;;;1.73;;
51332;SDS011;37417;48.118;11.734;2024-01-30T06:02:26;2.85;;;1.95;;
51332;SDS011;37417;48.118;11.734;2024-01-30T06:05:12;3.33;;;1.52;;
51332;SDS011;37417;48.118;11.734;2024-01-30T06:07:57;2.53;;;1.50;;
51332;SDS011;37417;48.118;11.734;2024-01-30T06:10:43;1.77;;;1.35;;
51332;SDS011;37417;48.118;11.734;2024-01-30T06:13:28;1.58;;;1.20;;
51332;SDS011;37417;48.118;11.734;2024-01-30T06:16:17;1.83;;;1.05;;
51332;SDS011;37417;48.118;11.734;2024-01-30T06:19:02;2.45;;;1.42;;
51332;SDS011;37417;48.118;11.734;2024-01-30T06:21:48;1.52;;;1.00;;
51332;SDS011;37417;48.118;11.734;2024-01-30T06:24:33;1.90;;;1.23;;
51332;SDS011;37417;48.118;11.734;2024-01-30T06:27:20;2.33;;;1.35;;
51332;SDS011;37417;48.118;11.734;2024-01-30T06:30:05;1.63;;;0.90;;
51332;SDS011;37417;48.118;11.734;2024-01-30T06:32:51;1.92;;;0.90;;
51332;SDS011;37417;48.118;11.734;2024-01-30T06:35:37;2.60;;;1.15;;
51332;SDS011;37417;48.118;11.734;2024-01-30T06:38:25;1.33;;;1.00;;
51332;SDS011;37417;48.118;11.734;2024-01-30T06:41:11;1.38;;;0.93;;
51332;SDS011;37417;48.118;11.734;2024-01-30T06:43:56;1.67;;;1.00;;
51332;SDS011;37417;48.118;11.734;2024-01-30T06:46:42;6.78;;;1.05;;
51332;SDS011;37417;48.118;11.734;2024-01-30T06:49:27;1.05;;;0.95;;
51332;SDS011;37417;48.118;11.734;2024-01-30T06:52:13;1.20;;;1.10;;
51332;SDS011;37417;48.118;11.734;2024-01-30T06:54:59;1.25;;;0.80;;
51332;SDS011;37417;48.118;11.734;2024-01-30T06:57:45;1.60;;;0.75;;
51332;SDS011;37417;48.118;11.734;2024-01-30T07:00:30;2.90;;;1.13;;
51332;SDS011;37417;48.118;11.734;2024-01-30T07:03:16;2.38;;;1.15;;
51332;SDS011;37417;48.118;11.734;2024-01-30T07:06:02;1.60;;;1.30;;
51332;SDS011;37417;48.118;11.734;2024-01-30T07:08:48;4.25;;;1.08;;
51332;SDS011;37417;48.118;11.734;2024-01-30T07:11:34;1.52;;;0.85;;
51332;SDS011;37417;48.118;11.734;2024-01-30T07:14:19;2.58;;;1.00;;
51332;SDS011;37417;48.118;11.734;2024-01-30T07:17:05;1.25;;;0.90;;
51332;SDS011;37417;48.118;11.734;2024-01-30T07:19:51;4.68;;;1.77;;
51332;SDS011;37417;48.118;11.734;2024-01-30T07:22:36;3.72;;;1.73;;
51332;SDS011;37417;48.118;11.734;2024-01-30T07:25:22;1.50;;;1.30;;
51332;SDS011;37417;48.118;11.734;2024-01-30T07:28:11;5.20;;;1.45;;
51332;SDS011;37417;48.118;11.734;2024-01-30T07:30:57;1.60;;;1.27;;
51332;SDS011;37417;48.118;11.734;2024-01-30T07:33:43;2.42;;;1.80;;
51332;SDS011;37417;48.118;11.734;2024-01-30T07:36:28;2.33;;;1.35;;
51332;SDS011;37417;48.118;11.734;2024-01-30T07:39:14;2.65;;;1.45;;
51332;SDS011;37417;48.118;11.734;2024-01-30T07:42:00;1.83;;;1.33;;
51332;SDS011;37417;48.118;11.734;2024-01-30T07:44:45;3.25;;;1.15;;
51332;SDS011;37417;48.118;11.734;2024-01-30T07:47:31;2.83;;;1.63;;
51332;SDS011;37417;48.118;11.734;2024-01-30T07:50:17;2.80;;;1.17;;
51332;SDS011;37417;48.118;11.734;2024-01-30T07:53:02;1.98;;;1.17;;
51332;SDS011;37417;48.118;11.734;2024-01-30T07:55:48;3.65;;;1.10;;
51332;SDS011;37417;48.118;11.734;2024-01-30T07:58:34;1.70;;;1.10;;
51332;SDS011;37417;48.118;11.734;2024-01-30T08:01:19;2.60;;;0.95;;
51332;SDS011;37417;48.118;11.734;2024-01-30T08:04:05;2.40;;;1.23;;
51332;SDS011;37417;48.118;11.734;2024-01-30T08:06:50;1.50;;;0.80;;
51332;SDS011;37417;48.118;11.734;2024-01-30T08:09:36;1.27;;;0.70;;
51332;SDS011;37417;48.118;11.734;2024-01-30T08:12:21;1.83;;;1.02;;
51332;SDS011;37417;48.118;11.734;2024-01-30T08:15:07;2.13;;;1.00;;
51332;SDS011;37417;48.118;11.734;2024-01-30T08:17:53;3.17;;;0.73;;
51332;SDS011;37417;48.118;11.734;2024-01-30T08:20:43;2.20;;;1.30;;
51332;SDS011;37417;48.118;11.734;2024-01-30T08:23:28;1.23;;;0.90;;
51332;SDS011;37417;48.118;11.734;2024-01-30T08:26:14;2.20;;;1.10;;
51332;SDS011;37417;48.118;11.734;2024-01-30T08:28:59;2.08;;;0.90;;
51332;SDS011;37417;48.118;11.734;2024-01-30T08:31:45;1.10;;;0.90;;
51332;SDS011;37417;48.118;11.734;2024-01-30T08:34:31;1.38;;;1.15;;
51332;SDS011;37417;48.118;11.734;2024-01-30T08:37:17;2.53;;;1.00;;
51332;SDS011;37417;48.118;11.734;2024-01-30T08:40:03;1.58;;;0.93;;
51332;SDS011;37417;48.118;11.734;2024-01-30T08:42:49;2.50;;;1.33;;
51332;SDS011;37417;48.118;11.734;2024-01-30T08:45:35;0.95;;;0.75;;
51332;SDS011;37417;48.118;11.734;2024-01-30T08:48:21;2.60;;;1.10;;
51332;SDS011;37417;48.118;11.734;2024-01-30T08:51:09;1.92;;;1.05;;
51332;SDS011;37417;48.118;11.734;2024-01-30T08:53:54;1.35;;;0.85;;
51332;SDS011;37417;48.118;11.734;2024-01-30T08:56:40;1.50;;;1.05;;
51332;SDS011;37417;48.118;11.734;2024-01-30T08:59:25;1.63;;;1.05;;
51332;SDS011;37417;48.118;11.734;2024-01-30T09:02:11;1.98;;;1.05;;
51332;SDS011;37417;48.118;11.734;2024-01-30T09:04:58;1.63;;;1.00;;
51332;SDS011;37417;48.118;11.734;2024-01-30T09:07:44;1.35;;;0.80;;
51332;SDS011;37417;48.118;11.734;2024-01-30T09:10:29;1.35;;;0.90;;
51332;SDS011;37417;48.118;11.734;2024-01-30T09:13:15;1.35;;;0.88;;
51332;SDS011;37417;48.118;11.734;2024-01-30T09:16:00;4.93;;;0.98;;
51332;SDS011;37417;48.118;11.734;2024-01-30T09:18:46;3.63;;;0.90;;
51332;SDS011;37417;48.118;11.734;2024-01-30T09:21:32;1.55;;;1.00;;
51332;SDS011;37417;48.118;11.734;2024-01-30T09:24:17;2.28;;;0.90;;
51332;SDS011;37417;48.118;11.734;2024-01-30T09:27:03;1.33;;;0.77;;
51332;SDS011;37417;48.118;11.734;2024-01-30T09:29:48;1.52;;;0.60;;
51332;SDS011;37417;48.118;11.734;2024-01-30T09:32:34;2.30;;;1.02;;
51332;SDS011;37417;48.118;11.734;2024-01-30T09:35:19;1.17;;;0.93;;
51332;SDS011;37417;48.118;11.734;2024-01-30T09:38:05;1.27;;;0.88;;
51332;SDS011;37417;48.118;11.734;2024-01-30T09:40:52;1.77;;;0.82;;
51332;SDS011;37417;48.118;11.734;2024-01-30T09:43:39;2.28;;;0.93;;
51332;SDS011;37417;48.118;11.734;2024-01-30T09:46:27;0.90;;;0.68;;
51332;SDS011;37417;48.118;11.734;2024-01-30T09:49:13;1.33;;;0.85;;
51332;SDS011;37417;48.118;11.734;2024-01-30T09:52:00;1.25;;;0.82;;
51332;SDS011;37417;48.118;11.734;2024-01-30T09:54:45;6.10;;;0.75;;
51332;SDS011;37417;48.118;11.734;2024-01-30T09:57:32;5.13;;;0.95;;
51332;SDS011;37417;48.118;11.734;2024-01-30T10:00:17;1.67;;;0.70;;
51332;SDS011;37417;48.118;11.734;2024-01-30T10:03:03;3.22;;;0.80;;
51332;SDS011;37417;48.118;11.734;2024-01-30T10:05:52;1.95;;;0.60;;
51332;SDS011;37417;48.118;11.734;2024-01-30T10:08:38;1.52;;;1.00;;
51332;SDS011;37417;48.118;11.734;2024-01-30T10:11:24;1.35;;;0.85;;
51332;SDS011;37417;48.118;11.734;2024-01-30T10:14:09;4.32;;;0.80;;
51332;SDS011;37417;48.118;11.734;2024-01-30T10:16:55;3.08;;;0.77;;
51332;SDS011;37417;48.118;11.734;2024-01-30T10:19:40;0.88;;;0.80;;
51332;SDS011;37417;48.118;11.734;2024-01-30T10:22:26;2.55;;;1.17;;
51332;SDS011;37417;48.118;11.734;2024-01-30T10:25:12;1.50;;;0.93;;
51332;SDS011;37417;48.118;11.734;2024-01-30T10:27:58;1.38;;;0.90;;
51332;SDS011;37417;48.118;11.734;2024-01-30T10:30:44;1.80;;;0.90;;
51332;SDS011;37417;48.118;11.734;2024-01-30T10:33:30;2.10;;;1.25;;
51332;SDS011;37417;48.118;11.734;2024-01-30T10:36:15;2.25;;;0.88;;
51332;SDS011;37417;48.118;11.734;2024-01-30T10:39:02;3.25;;;0.88;;
51332;SDS011;37417;48.118;11.734;2024-01-30T10:41:51;4.80;;;1.20;;
51332;SDS011;37417;48.118;11.734;2024-01-30T10:45:00;1.33;;;1.00;;
51332;SDS011;37417;48.118;11.734;2024-01-30T10:47:50;3.17;;;0.93;;
51332;SDS011;37417;48.118;11.734;2024-01-30T10:50:38;2.42;;;1.05;;
51332;SDS011;37417;48.118;11.734;2024-01-30T10:53:25;5.18;;;1.20;;
51332;SDS011;37417;48.118;11.734;2024-01-30T10:56:11;7.82;;;1.67;;
51332;SDS011;37417;48.118;11.734;2024-01-30T10:58:57;4.25;;;1.20;;
51332;SDS011;37417;48.118;11.734;2024-01-30T11:01:43;11.05;;;1.33;;
51332;SDS011;37417;48.118;11.734;2024-01-30T11:04:35;6.32;;;1.02;;
51332;SDS011;37417;48.118;11.734;2024-01-30T11:07:24;4.63;;;1.25;;
51332;SDS011;37417;48.118;11.734;2024-01-30T11:10:11;1.67;;;1.17;;
51332;SDS011;37417;48.118;11.734;2024-01-30T11:13:00;10.10;;;1.23;;
51332;SDS011;37417;48.118;11.734;2024-01-30T11:15:55;2.60;;;1.08;;
51332;SDS011;37417;48.118;11.734;2024-01-30T11:18:41;2.35;;;1.15;;
51332;SDS011;37417;48.118;11.734;2024-01-30T11:21:26;2.70;;;1.15;;
51332;SDS011;37417;48.118;11.734;2024-01-30T11:24:12;2.17;;;0.90;;
51332;SDS011;37417;48.118;11.734;2024-01-30T11:26:58;7.18;;;1.27;;
51332;SDS011;37417;48.118;11.734;2024-01-30T11:29:49;2.65;;;1.52;;
51332;SDS011;37417;48.118;11.734;2024-01-30T11:32:35;7.65;;;1.77;;
51332;SDS011;37417;48.118;11.734;2024-01-30T11:35:21;4.10;;;1.58;;
51332;SDS011;37417;48.118;11.734;2024-01-30T11:38:07;2.75;;;1.23;;
51332;SDS011;37417;48.118;11.734;2024-01-30T11:40:53;3.42;;;1.65;;
51332;SDS011;37417;48.118;11.734;2024-01-30T11:43:39;5.00;;;1.08;;
51332;SDS011;37417;48.118;11.734;2024-01-30T11:46:25;9.65;;;1.40;;
51332;SDS011;37417;48.118;11.734;2024-01-30T11:49:10;4.22;;;1.38;;
51332;SDS011;37417;48.118;11.734;2024-01-30T11:51:56;7.90;;;1.52;;
51332;SDS011;37417;48.118;11.734;2024-01-30T11:54:41;3.20;;;1.30;;
51332;SDS011;37417;48.118;11.734;2024-01-30T11:57:27;5.72;;;1.20;;
51332;SDS011;37417;48.118;11.734;2024-01-30T12:00:17;4.10;;;1.17;;
51332;SDS011;37417;48.118;11.734;2024-01-30T12:03:03;4.57;;;1.40;;
51332;SDS011;37417;48.118;11.734;2024-01-30T12:05:57;4.15;;;1.27;;
51332;SDS011;37417;48.118;11.734;2024-01-30T12:08:55;3.55;;;1.27;;
51332;SDS011;37417;48.118;11.734;2024-01-30T12:11:44;3.33;;;1.67;;
51332;SDS011;37417;48.118;11.734;2024-01-30T12:14:30;2.15;;;1.20;;
51332;SDS011;37417;48.118;11.734;2024-01-30T12:17:34;5.45;;;1.73;;
51332;SDS011;37417;48.118;11.734;2024-01-30T12:20:20;6.80;;;1.20;;
51332;SDS011;37417;48.118;11.734;2024-01-30T12:23:06;2.35;;;1.15;;
51332;SDS011;37417;48.118;11.734;2024-01-30T12:25:52;3.70;;;1.00;;
51332;SDS011;37417;48.118;11.734;2024-01-30T12:28:47;4.70;;;1.48;;
51332;SDS011;37417;48.118;11.734;2024-01-30T12:31:32;4.45;;;1.35;;
51332;SDS011;37417;48.118;11.734;2024-01-30T12:34:18;2.50;;;1.63;;
51332;SDS011;37417;48.118;11.734;2024-01-30T12:37:05;4.07;;;1.40;;
51332;SDS011;37417;48.118;11.734;2024-01-30T12:39:51;5.53;;;1.50;;
51332;SDS011;37417;48.118;11.734;2024-01-30T12:42:38;6.80;;;1.27;;
51332;SDS011;37417;48.118;11.734;2024-01-30T12:45:24;2.13;;;1.38;;
51332;SDS011;37417;48.118;11.734;2024-01-30T12:48:10;7.55;;;1.63;;
51332;SDS011;37417;48.118;11.734;2024-01-30T12:50:56;3.70;;;1.60;;
51332;SDS011;37417;48.118;11.734;2024-01-30T12:53:41;12.52;;;1.85;;
51332;SDS011;37417;48.118;11.734;2024-01-30T12:56:27;4.30;;;1.30;;
51332;SDS011;37417;48.118;11.734;2024-01-30T12:59:12;4.28;;;1.75;;
51332;SDS011;37417;48.118;11.734;2024-01-30T13:01:59;7.32;;;1.70;;
51332;SDS011;37417;48.118;11.734;2024-01-30T13:04:45;10.63;;;2.08;;
51332;SDS011;37417;48.118;11.734;2024-01-30T13:07:31;3.78;;;2.40;;
51332;SDS011;37417;48.118;11.734;2024-01-30T13:10:16;9.07;;;1.80;;
51332;SDS011;37417;48.118;11.734;2024-01-30T13:13:02;4.72;;;1.50;;
51332;SDS011;37417;48.118;11.734;2024-01-30T13:15:48;4.57;;;1.42;;
51332;SDS011;37417;48.118;11.734;2024-01-30T13:18:33;6.13;;;1.55;;
51332;SDS011;37417;48.118;11.734;2024-01-30T13:21:19;5.13;;;1.65;;
51332;SDS011;37417;48.118;11.734;2024-01-30T13:24:07;3.55;;;1.55;;
51332;SDS011;37417;48.118;11.734;2024-01-30T13:26:53;8.88;;;1.52;;
51332;SDS011;37417;48.118;11.734;2024-01-30T13:29:38;6.18;;;1.38;;
51332;SDS011;37417;48.118;11.734;2024-01-30T13:32:24;5.03;;;1.25;;
51332;SDS011;37417;48.118;11.734;2024-01-30T13:35:10;6.55;;;1.40;;
51332;SDS011;37417;48.118;11.734;2024-01-30T13:37:55;3.22;;;1.40;;
51332;SDS011;37417;48.118;11.734;2024-01-30T13:40:41;7.43;;;1.55;;
51332;SDS011;37417;48.118;11.734;2024-01-30T13:43:26;4.55;;;1.77;;
51332;SDS011;37417;48.118;11.734;2024-01-30T13:46:12;3.25;;;1.77;;
51332;SDS011;37417;48.118;11.734;2024-01-30T13:48:57;5.50;;;1.80;;
51332;SDS011;37417;48.118;11.734;2024-01-30T13:51:43;4.00;;;1.80;;
51332;SDS011;37417;48.118;11.734;2024-01-30T13:54:28;7.10;;;1.77;;
51332;SDS011;37417;48.118;11.734;2024-01-30T13:57:14;4.05;;;1.27;;
51332;SDS011;37417;48.118;11.734;2024-01-30T14:00:00;5.40;;;1.27;;
51332;SDS011;37417;48.118;11.734;2024-01-30T14:02:45;3.13;;;1.40;;
51332;SDS011;37417;48.118;11.734;2024-01-30T14:05:31;2.00;;;1.45;;
51332;SDS011;37417;48.118;11.734;2024-01-30T14:08:16;7.80;;;1.50;;
51332;SDS011;37417;48.118;11.734;2024-01-30T14:11:02;5.78;;;1.75;;
51332;SDS011;37417;48.118;11.734;2024-01-30T14:13:48;5.07;;;1.40;;
51332;SDS011;37417;48.118;11.734;2024-01-30T14:16:34;6.15;;;2.03;;
51332;SDS011;37417;48.118;11.734;2024-01-30T14:19:19;6.30;;;1.83;;
51332;SDS011;37417;48.118;11.734;2024-01-30T14:22:05;2.28;;;1.23;;
51332;SDS011;37417;48.118;11.734;2024-01-30T14:24:52;4.65;;;1.42;;
51332;SDS011;37417;48.118;11.734;2024-01-30T14:27:37;5.05;;;1.50;;
51332;SDS011;37417;48.118;11.734;2024-01-30T14:30:23;3.42;;;1.33;;
51332;SDS011;37417;48.118;11.734;2024-01-30T14:33:08;8.70;;;1.77;;
51332;SDS011;37417;48.118;11.734;2024-01-30T14:35:54;4.05;;;1.10;;
51332;SDS011;37417;48.118;11.734;2024-01-30T14:38:39;4.18;;;1.20;;
51332;SDS011;37417;48.118;11.734;2024-01-30T14:41:25;3.45;;;1.52;;
51332;SDS011;37417;48.118;11.734;2024-01-30T14:44:11;4.22;;;1.80;;
51332;SDS011;37417;48.118;11.734;2024-01-30T14:46:56;5.93;;;1.85;;
51332;SDS011;37417;48.118;11.734;2024-01-30T14:49:42;6.65;;;1.40;;
51332;SDS011;37417;48.118;11.734;2024-01-30T14:52:27;8.18;;;2.00;;
51332;SDS011;37417;48.118;11.734;2024-01-30T14:55:13;5.82;;;1.83;;
51332;SDS011;37417;48.118;11.734;2024-01-30T14:57:58;7.50;;;2.20;;
51332;SDS011;37417;48.118;11.734;2024-01-30T15:00:44;7.10;;;2.00;;
51332;SDS011;37417;48.118;11.734;2024-01-30T15:03:30;6.45;;;2.50;;
51332;SDS011;37417;48.118;11.734;2024-01-30T15:06:15;4.43;;;2.15;;
51332;SDS011;37417;48.118;11.734;2024-01-30T15:09:01;6.32;;;2.28;;
51332;SDS011;37417;48.118;11.734;2024-01-30T15:11:47;11.55;;;2.70;;
51332;SDS011;37417;48.118;11.734;2024-01-30T15:14:32;7.18;;;2.90;;
51332;SDS011;37417;48.118;11.734;2024-01-30T15:17:18;9.13;;;3.28;;
51332;SDS011;37417;48.118;11.734;2024-01-30T15:20:04;5.50;;;2.42;;
51332;SDS011;37417;48.118;11.734;2024-01-30T15:22:49;8.88;;;3.30;;
51332;SDS011;37417;48.118;11.734;2024-01-30T15:25:35;6.90;;;3.58;;
51332;SDS011;37417;48.118;11.734;2024-01-30T15:28:34;7.13;;;3.50;;
51332;SDS011;37417;48.118;11.734;2024-01-30T15:31:20;6.78;;;2.70;;
51332;SDS011;37417;48.118;11.734;2024-01-30T15:34:06;5.38;;;2.90;;
51332;SDS011;37417;48.118;11.734;2024-01-30T15:36:51;4.18;;;2.60;;
51332;SDS011;37417;48.118;11.734;2024-01-30T15:39:37;10.57;;;3.25;;
51332;SDS011;37417;48.118;11.734;2024-01-30T15:42:23;7.03;;;3.30;;
51332;SDS011;37417;48.118;11.734;2024-01-30T15:45:08;3.90;;;2.78;;
51332;SDS011;37417;48.118;11.734;2024-01-30T15:47:54;6.20;;;3.13;;
51332;SDS011;37417;48.118;11.734;2024-01-30T15:50:40;11.57;;;2.90;;
51332;SDS011;37417;48.118;11.734;2024-01-30T15:53:26;12.00;;;3.20;;
51332;SDS011;37417;48.118;11.734;2024-01-30T15:56:11;10.55;;;3.60;;
51332;SDS011;37417;48.118;11.734;2024-01-30T15:58:57;6.68;;;3.20;;
51332;SDS011;37417;48.118;11.734;2024-01-30T16:01:42;14.68;;;3.50;;
51332;SDS011;37417;48.118;11.734;2024-01-30T16:04:33;10.75;;;3.58;;
51332;SDS011;37417;48.118;11.734;2024-01-30T16:07:18;9.82;;;3.30;;
51332;SDS011;37417;48.118;11.734;2024-01-30T16:10:04;8.55;;;3.70;;
51332;SDS011;37417;48.118;11.734;2024-01-30T16:12:50;17.02;;;8.60;;
51332;SDS011;37417;48.118;11.734;2024-01-30T16:15:37;13.25;;;5.43;;
51332;SDS011;37417;48.118;11.734;2024-01-30T16:18:25;9.65;;;4.47;;
51332;SDS011;37417;48.118;11.734;2024-01-30T16:21:11;9.40;;;4.18;;
51332;SDS011;37417;48.118;11.734;2024-01-30T16:23:59;12.32;;;3.47;;
51332;SDS011;37417;48.118;11.734;2024-01-30T16:26:45;12.23;;;3.25;;
51332;SDS011;37417;48.118;11.734;2024-01-30T16:29:30;14.10;;;3.75;;
51332;SDS011;37417;48.118;11.734;2024-01-30T16:32:16;7.22;;;3.63;;
51332;SDS011;37417;48.118;11.734;2024-01-30T16:35:02;8.95;;;4.07;;
51332;SDS011;37417;48.118;11.734;2024-01-30T16:37:47;5.93;;;3.10;;